Time;durP1;ratioP1;P1;durP2;ratioP2;P2;SDS_P1;SDS_P2;PMS_P1;PMS_P2;Temp;Humidity;BMP_temperature;BMP_pressure;BME280_temperature;BME280_humidity;BME280_pressure;Samples;Min_cycle;Max_cycle;Signal;HPM_P1;HPM_P2
2023/12/12 00:01:52;;;;;;;20.23;8.93;;;;;;;;;;5127663;28;20019;-49
2023/12/12 00:04:19;;;;;;;20.75;8.57;;;;;;;;;;5126799;28;20028;-52
2023/12/12 00:06:46;;;;;;;15.10;7.93;;;;;;;;;;5127080;28;20035;-49
2023/12/12 00:09:12;;;;;;;14.75;7.85;;;;;;;;;;5127055;28;20194;-48
2023/12/12 00:11:39;;;;;;;20.75;7.93;;;;;;;;;;5127037;28;20036;-48
2023/12/12 00:14:06;;;;;;;20.60;8.15;;;;;;;;;;5126808;28;20016;-48
2023/12/12 00:16:34;;;;;;;16.33;8.00;;;;;;;;;;5126529;28;20024;-49
2023/12/12 00:19:01;;;;;;;17.00;7.97;;;;;;;;;;5126269;28;20031;-55
2023/12/12 00:21:28;;;;;;;16.92;7.97;;;;;;;;;;5126930;28;20039;-51
2023/12/12 00:23:55;;;;;;;12.75;7.28;;;;;;;;;;5126291;28;20027;-50
2023/12/12 00:26:22;;;;;;;14.68;7.55;;;;;;;;;;5111057;28;20051;-48
2023/12/12 00:28:49;;;;;;;14.85;7.60;;;;;;;;;;5106354;28;20021;-49
2023/12/12 00:31:17;;;;;;;15.60;7.03;;;;;;;;;;5104744;28;20300;-48
2023/12/12 00:33:44;;;;;;;17.73;7.18;;;;;;;;;;5105155;28;20073;-51
2023/12/12 00:36:10;;;;;;;15.25;7.50;;;;;;;;;;5105022;28;20024;-47
2023/12/12 00:38:37;;;;;;;16.50;7.10;;;;;;;;;;5105473;28;20031;-49
2023/12/12 00:41:04;;;;;;;11.95;6.60;;;;;;;;;;5105675;28;20031;-50
2023/12/12 00:43:31;;;;;;;19.17;7.07;;;;;;;;;;5105605;28;20043;-49
2023/12/12 00:45:58;;;;;;;13.40;6.72;;;;;;;;;;5105650;28;20024;-52
2023/12/12 00:48:26;;;;;;;15.60;7.32;;;;;;;;;;5105250;28;20385;-46
2023/12/12 00:50:53;;;;;;;13.05;6.75;;;;;;;;;;5105402;28;20031;-53
2023/12/12 00:53:19;;;;;;;13.95;6.57;;;;;;;;;;5105276;28;20054;-49
2023/12/12 00:55:46;;;;;;;11.07;6.20;;;;;;;;;;5105260;28;20043;-53
2023/12/12 00:58:13;;;;;;;15.90;6.43;;;;;;;;;;5105032;28;20229;-51
2023/12/12 01:00:39;;;;;;;9.65;6.07;;;;;;;;;;5105155;28;20046;-51
2023/12/12 01:03:06;;;;;;;13.07;6.43;;;;;;;;;;5105163;28;20052;-51
2023/12/12 01:05:33;;;;;;;12.82;6.40;;;;;;;;;;5104914;28;20036;-46
2023/12/12 01:08:01;;;;;;;13.15;6.35;;;;;;;;;;5104773;28;20016;-46
2023/12/12 01:10:28;;;;;;;13.65;6.40;;;;;;;;;;5104928;28;20036;-47
2023/12/12 01:12:55;;;;;;;11.65;6.32;;;;;;;;;;5104951;28;20095;-51
2023/12/12 01:15:21;;;;;;;14.43;6.18;;;;;;;;;;5104719;28;20332;-51
2023/12/12 01:17:48;;;;;;;16.98;7.03;;;;;;;;;;5104906;28;20203;-54
2023/12/12 01:20:15;;;;;;;15.90;6.15;;;;;;;;;;5104960;28;20024;-52
2023/12/12 01:22:42;;;;;;;13.60;6.20;;;;;;;;;;5104780;28;20020;-56
2023/12/12 01:25:08;;;;;;;12.27;6.20;;;;;;;;;;5104001;28;20252;-48
2023/12/12 01:27:37;;;;;;;12.60;6.15;;;;;;;;;;5103433;28;20071;-46
2023/12/12 01:30:04;;;;;;;17.20;6.30;;;;;;;;;;5099570;28;20031;-47
2023/12/12 01:32:31;;;;;;;34.83;8.38;;;;;;;;;;5092738;28;20123;-54
2023/12/12 01:34:58;;;;;;;47.25;8.82;;;;;;;;;;5083869;28;20033;-47
2023/12/12 01:37:24;;;;;;;26.77;7.95;;;;;;;;;;5098819;28;20028;-55
2023/12/12 01:39:52;;;;;;;28.08;7.85;;;;;;;;;;5103748;28;20036;-50
2023/12/12 01:42:19;;;;;;;24.10;8.15;;;;;;;;;;5085775;28;20092;-52
2023/12/12 01:44:46;;;;;;;23.50;7.30;;;;;;;;;;5098528;28;20032;-53
2023/12/12 01:47:13;;;;;;;25.02;7.68;;;;;;;;;;5103218;28;20042;-53
2023/12/12 01:49:40;;;;;;;22.42;7.90;;;;;;;;;;5101610;28;20075;-56
2023/12/12 01:52:07;;;;;;;14.80;7.05;;;;;;;;;;5099209;28;20016;-52
2023/12/12 01:54:36;;;;;;;12.60;6.38;;;;;;;;;;5103143;28;20039;-53
2023/12/12 01:57:03;;;;;;;11.88;6.60;;;;;;;;;;5102289;28;20027;-53
2023/12/12 01:59:30;;;;;;;14.57;6.65;;;;;;;;;;5099744;28;20328;-52
2023/12/12 02:01:58;;;;;;;12.93;6.13;;;;;;;;;;5102559;28;20046;-52
2023/12/12 02:04:25;;;;;;;11.77;5.80;;;;;;;;;;5103677;28;20100;-54
2023/12/12 02:06:52;;;;;;;12.50;6.50;;;;;;;;;;5101288;28;20028;-53
2023/12/12 02:09:20;;;;;;;12.35;6.35;;;;;;;;;;5100559;28;20052;-54
2023/12/12 02:11:46;;;;;;;11.85;6.13;;;;;;;;;;5104180;28;20031;-53
2023/12/12 02:14:13;;;;;;;14.40;7.40;;;;;;;;;;5103934;28;20016;-52
2023/12/12 02:16:41;;;;;;;10.10;6.53;;;;;;;;;;5104310;28;20032;-56
2023/12/12 02:19:08;;;;;;;13.30;6.82;;;;;;;;;;5103706;28;20096;-53
2023/12/12 02:21:34;;;;;;;10.18;6.30;;;;;;;;;;5104027;28;20030;-51
2023/12/12 02:24:01;;;;;;;12.65;7.00;;;;;;;;;;5095609;28;20031;-53
2023/12/12 02:26:28;;;;;;;13.57;7.10;;;;;;;;;;5094330;28;20040;-53
2023/12/12 02:28:55;;;;;;;14.27;6.55;;;;;;;;;;5083546;28;20021;-51
2023/12/12 02:31:23;;;;;;;15.00;7.15;;;;;;;;;;5083775;28;20332;-54
2023/12/12 02:33:49;;;;;;;12.70;6.85;;;;;;;;;;5083288;28;20032;-53
2023/12/12 02:36:16;;;;;;;12.38;7.25;;;;;;;;;;5083487;28;20028;-52
2023/12/12 02:38:43;;;;;;;16.80;6.80;;;;;;;;;;5092010;28;20051;-55
2023/12/12 02:41:09;;;;;;;15.05;7.50;;;;;;;;;;5103265;28;20032;-56
2023/12/12 02:43:38;;;;;;;11.63;6.75;;;;;;;;;;5103752;28;20023;-56
2023/12/12 02:46:05;;;;;;;15.18;7.03;;;;;;;;;;5103811;28;20312;-54
2023/12/12 02:48:32;;;;;;;14.77;7.05;;;;;;;;;;5103396;28;20024;-60
2023/12/12 02:50:58;;;;;;;12.20;7.20;;;;;;;;;;5103789;28;20162;-55
2023/12/12 02:53:25;;;;;;;10.52;6.65;;;;;;;;;;5102417;28;20493;-51
2023/12/12 02:55:52;;;;;;;11.93;6.38;;;;;;;;;;5103567;28;20083;-52
2023/12/12 02:58:18;;;;;;;9.85;5.93;;;;;;;;;;5097818;28;20023;-51
2023/12/12 03:00:45;;;;;;;9.32;6.18;;;;;;;;;;5087708;28;20033;-50
2023/12/12 03:03:12;;;;;;;13.65;6.47;;;;;;;;;;5085199;28;20029;-54
2023/12/12 03:05:38;;;;;;;15.05;7.07;;;;;;;;;;5086907;28;20044;-58
2023/12/12 03:08:06;;;;;;;16.33;7.50;;;;;;;;;;5086401;28;20024;-52
2023/12/12 03:10:33;;;;;;;13.23;7.47;;;;;;;;;;5084930;28;20300;-53
2023/12/12 03:13:00;;;;;;;15.73;8.45;;;;;;;;;;5086306;28;20024;-54
2023/12/12 03:15:26;;;;;;;16.48;8.77;;;;;;;;;;5086911;28;20040;-59
2023/12/12 03:17:53;;;;;;;16.60;9.32;;;;;;;;;;5085336;28;20040;-52
2023/12/12 03:20:21;;;;;;;13.38;7.78;;;;;;;;;;5086516;28;20043;-56
2023/12/12 03:22:48;;;;;;;13.00;6.70;;;;;;;;;;5086775;28;20039;-52
2023/12/12 03:25:15;;;;;;;15.63;7.03;;;;;;;;;;5086350;28;20036;-61
2023/12/12 03:27:41;;;;;;;11.93;7.05;;;;;;;;;;5086229;28;20049;-55
2023/12/12 03:30:08;;;;;;;13.18;7.13;;;;;;;;;;5086501;28;20046;-54
2023/12/12 03:32:35;;;;;;;13.27;7.57;;;;;;;;;;5086300;28;20036;-52
2023/12/12 03:35:02;;;;;;;14.23;8.27;;;;;;;;;;5086232;28;20028;-53
2023/12/12 03:37:29;;;;;;;15.50;9.60;;;;;;;;;;5086283;28;20091;-55
2023/12/12 03:39:56;;;;;;;14.30;7.97;;;;;;;;;;5086346;28;20055;-54
2023/12/12 03:42:24;;;;;;;15.60;7.85;;;;;;;;;;5086201;28;20063;-50
2023/12/12 03:44:51;;;;;;;14.25;7.32;;;;;;;;;;5086150;28;20032;-49
2023/12/12 03:47:18;;;;;;;14.18;6.80;;;;;;;;;;5086310;28;20279;-55
2023/12/12 03:49:46;;;;;;;13.02;7.00;;;;;;;;;;5086057;28;20382;-57
2023/12/12 03:52:12;;;;;;;12.27;7.00;;;;;;;;;;5085987;28;20033;-54
2023/12/12 03:54:39;;;;;;;10.35;6.30;;;;;;;;;;5085987;28;20083;-54
2023/12/12 03:57:06;;;;;;;13.18;6.28;;;;;;;;;;5086383;28;20066;-54
2023/12/12 03:59:32;;;;;;;10.15;6.00;;;;;;;;;;5085858;28;20028;-54
2023/12/12 04:01:59;;;;;;;11.82;5.65;;;;;;;;;;5086453;28;20035;-53
2023/12/12 04:04:26;;;;;;;11.75;5.30;;;;;;;;;;5085642;28;20028;-56
2023/12/12 04:06:52;;;;;;;9.88;5.50;;;;;;;;;;5086016;28;20039;-55
2023/12/12 04:09:19;;;;;;;10.82;5.28;;;;;;;;;;5085624;28;20031;-50
2023/12/12 04:11:46;;;;;;;13.43;5.13;;;;;;;;;;5085886;28;20021;-49
2023/12/12 04:14:12;;;;;;;11.90;5.45;;;;;;;;;;5084753;28;20036;-53
2023/12/12 04:16:39;;;;;;;9.48;6.22;;;;;;;;;;5086003;28;20020;-51
2023/12/12 04:19:06;;;;;;;11.65;5.50;;;;;;;;;;5085698;28;20232;-50
2023/12/12 04:21:33;;;;;;;8.55;5.00;;;;;;;;;;5085872;28;20044;-53
2023/12/12 04:23:59;;;;;;;9.38;4.72;;;;;;;;;;5085605;28;20067;-54
2023/12/12 04:26:29;;;;;;;10.93;4.70;;;;;;;;;;5085008;28;20036;-52
2023/12/12 04:28:56;;;;;;;9.45;4.60;;;;;;;;;;5085185;28;20056;-54
2023/12/12 04:31:23;;;;;;;7.88;4.35;;;;;;;;;;5085237;28;20066;-53
2023/12/12 04:33:49;;;;;;;10.52;4.57;;;;;;;;;;5085087;28;20023;-51
2023/12/12 04:36:16;;;;;;;7.75;4.50;;;;;;;;;;5085507;28;20043;-54
2023/12/12 04:38:42;;;;;;;7.47;4.00;;;;;;;;;;5084997;28;20020;-47
2023/12/12 04:41:12;;;;;;;8.77;4.25;;;;;;;;;;5085169;28;20024;-54
2023/12/12 04:43:38;;;;;;;9.15;3.80;;;;;;;;;;5084990;28;20036;-52
2023/12/12 04:46:05;;;;;;;7.20;4.30;;;;;;;;;;5085095;28;20032;-53
2023/12/12 04:48:32;;;;;;;7.03;3.80;;;;;;;;;;5084928;28;20025;-50
2023/12/12 04:51:00;;;;;;;9.63;3.80;;;;;;;;;;5085096;28;20197;-53
2023/12/12 04:53:26;;;;;;;9.05;3.83;;;;;;;;;;5084639;28;20028;-52
2023/12/12 04:55:53;;;;;;;8.48;4.05;;;;;;;;;;5084752;28;20308;-53
2023/12/12 04:58:20;;;;;;;8.63;3.65;;;;;;;;;;5084745;28;20036;-52
2023/12/12 05:00:46;;;;;;;9.73;3.83;;;;;;;;;;5084762;28;20094;-54
2023/12/12 05:03:13;;;;;;;6.95;3.47;;;;;;;;;;5083339;28;20372;-46
2023/12/12 05:05:40;;;;;;;6.57;3.40;;;;;;;;;;5084658;28;20056;-51
2023/12/12 05:08:06;;;;;;;7.70;3.20;;;;;;;;;;5084471;28;20335;-47
2023/12/12 05:10:34;;;;;;;5.05;3.17;;;;;;;;;;5084409;28;20087;-51
2023/12/12 05:13:01;;;;;;;7.18;3.30;;;;;;;;;;5084685;28;20074;-57
2023/12/12 05:15:29;;;;;;;4.95;3.20;;;;;;;;;;5084687;28;20328;-53
2023/12/12 05:17:55;;;;;;;6.20;3.40;;;;;;;;;;5084769;28;20304;-56
2023/12/12 05:20:22;;;;;;;6.05;3.65;;;;;;;;;;5084604;28;20025;-56
2023/12/12 05:22:49;;;;;;;6.80;3.28;;;;;;;;;;5084412;28;20062;-52
2023/12/12 05:25:16;;;;;;;5.30;3.20;;;;;;;;;;5084148;28;20062;-52
2023/12/12 05:27:42;;;;;;;6.47;2.97;;;;;;;;;;5083972;28;20055;-57
2023/12/12 05:30:09;;;;;;;5.78;3.05;;;;;;;;;;5084340;28;20028;-53
2023/12/12 05:32:36;;;;;;;9.05;3.13;;;;;;;;;;5084422;28;20208;-58
2023/12/12 05:35:03;;;;;;;4.88;3.20;;;;;;;;;;5084258;28;20028;-51
2023/12/12 05:37:29;;;;;;;4.40;3.38;;;;;;;;;;5084129;28;20029;-54
2023/12/12 05:39:56;;;;;;;8.50;3.92;;;;;;;;;;5083968;28;20308;-52
2023/12/12 05:42:23;;;;;;;8.02;4.22;;;;;;;;;;5084255;28;20216;-56
2023/12/12 05:44:50;;;;;;;6.60;3.70;;;;;;;;;;5084027;28;20016;-51
2023/12/12 05:47:16;;;;;;;7.70;3.72;;;;;;;;;;5084086;28;20066;-53
2023/12/12 05:49:43;;;;;;;8.00;4.00;;;;;;;;;;5084009;28;20189;-50
2023/12/12 05:52:10;;;;;;;6.07;3.70;;;;;;;;;;5084131;28;20025;-52
2023/12/12 05:54:37;;;;;;;9.43;3.78;;;;;;;;;;5084034;28;20013;-50
2023/12/12 05:57:04;;;;;;;9.57;4.07;;;;;;;;;;5084349;28;20030;-53
2023/12/12 05:59:31;;;;;;;8.50;4.20;;;;;;;;;;5084198;28;20044;-48
2023/12/12 06:01:57;;;;;;;8.90;4.32;;;;;;;;;;5084317;28;20247;-54
2023/12/12 06:04:24;;;;;;;7.65;4.70;;;;;;;;;;5084191;28;20081;-51
2023/12/12 06:06:51;;;;;;;8.73;4.40;;;;;;;;;;5084524;28;20134;-53
2023/12/12 06:09:17;;;;;;;6.82;3.90;;;;;;;;;;5102082;28;20023;-54
2023/12/12 06:11:44;;;;;;;8.63;4.00;;;;;;;;;;5124759;28;20023;-54
2023/12/12 06:14:12;;;;;;;10.02;4.20;;;;;;;;;;5124837;28;20090;-55
2023/12/12 06:16:38;;;;;;;7.70;4.00;;;;;;;;;;5124410;28;20026;-54
2023/12/12 06:19:05;;;;;;;8.23;4.18;;;;;;;;;;5124676;28;20052;-55
2023/12/12 06:21:33;;;;;;;12.38;4.13;;;;;;;;;;5125183;28;20273;-56
2023/12/12 06:24:02;;;;;;;7.47;4.22;;;;;;;;;;5124397;28;20324;-55
2023/12/12 06:26:31;;;;;;;6.85;3.83;;;;;;;;;;5123971;28;20040;-56
2023/12/12 06:28:58;;;;;;;8.32;3.88;;;;;;;;;;5124346;28;20047;-49
2023/12/12 06:31:24;;;;;;;8.18;3.85;;;;;;;;;;5124506;28;20015;-53
2023/12/12 06:33:52;;;;;;;8.93;3.90;;;;;;;;;;5124693;28;20058;-54
2023/12/12 06:36:19;;;;;;;6.72;3.58;;;;;;;;;;5124936;28;20357;-63
2023/12/12 06:38:46;;;;;;;8.40;3.75;;;;;;;;;;5127915;28;20028;-51
2023/12/12 06:41:12;;;;;;;7.22;3.38;;;;;;;;;;5128578;28;20371;-54
2023/12/12 06:43:39;;;;;;;9.75;3.55;;;;;;;;;;5128338;28;20036;-53
2023/12/12 06:46:07;;;;;;;6.80;3.70;;;;;;;;;;5128357;28;20315;-55
2023/12/12 06:48:34;;;;;;;5.63;3.38;;;;;;;;;;5128493;28;20036;-54
2023/12/12 06:51:01;;;;;;;7.78;3.70;;;;;;;;;;5128001;28;20016;-56
2023/12/12 06:53:28;;;;;;;9.65;3.70;;;;;;;;;;5128556;28;20019;-50
2023/12/12 06:55:55;;;;;;;8.88;3.35;;;;;;;;;;5127828;28;20072;-55
2023/12/12 06:58:25;;;;;;;4.80;2.90;;;;;;;;;;5128434;28;20346;-51
2023/12/12 07:00:51;;;;;;;6.75;3.70;;;;;;;;;;5127809;28;20295;-53
2023/12/12 07:03:18;;;;;;;10.65;4.30;;;;;;;;;;5127821;28;20037;-53
2023/12/12 07:05:45;;;;;;;8.73;3.47;;;;;;;;;;5127663;28;20274;-54
2023/12/12 07:08:12;;;;;;;6.60;3.53;;;;;;;;;;5127616;28;20019;-49
2023/12/12 07:10:39;;;;;;;4.88;3.17;;;;;;;;;;5127526;28;20030;-54
2023/12/12 07:13:05;;;;;;;5.50;3.17;;;;;;;;;;5127575;28;20023;-54
2023/12/12 07:15:33;;;;;;;6.40;3.13;;;;;;;;;;5127887;28;20031;-56
2023/12/12 07:18:00;;;;;;;7.00;2.90;;;;;;;;;;5127242;28;20055;-58
2023/12/12 07:20:26;;;;;;;7.63;3.72;;;;;;;;;;5127943;28;20027;-56
2023/12/12 07:22:53;;;;;;;7.05;3.63;;;;;;;;;;5127534;28;20072;-54
2023/12/12 07:25:20;;;;;;;7.30;3.28;;;;;;;;;;5127315;28;20202;-52
2023/12/12 07:27:47;;;;;;;7.63;3.40;;;;;;;;;;5127092;28;20044;-56
2023/12/12 07:30:13;;;;;;;5.70;2.90;;;;;;;;;;5127068;28;20047;-56
2023/12/12 07:32:40;;;;;;;8.13;3.40;;;;;;;;;;5127322;28;20391;-56
2023/12/12 07:35:07;;;;;;;5.75;3.20;;;;;;;;;;5127184;28;20042;-54
2023/12/12 07:37:34;;;;;;;8.05;3.25;;;;;;;;;;5126878;28;20022;-49
2023/12/12 07:40:03;;;;;;;4.85;2.95;;;;;;;;;;5126722;28;20023;-53
2023/12/12 07:42:30;;;;;;;6.28;3.28;;;;;;;;;;5126954;28;20026;-52
2023/12/12 07:44:57;;;;;;;6.38;2.97;;;;;;;;;;5126882;28;20015;-52
2023/12/12 07:47:24;;;;;;;5.05;2.88;;;;;;;;;;5126671;28;20035;-52
2023/12/12 07:49:51;;;;;;;5.43;2.70;;;;;;;;;;5125731;28;20303;-52
2023/12/12 07:52:17;;;;;;;6.15;3.00;;;;;;;;;;5127063;28;20024;-51
2023/12/12 07:54:44;;;;;;;4.45;2.95;;;;;;;;;;5126558;28;20023;-51
2023/12/12 07:57:11;;;;;;;6.47;3.28;;;;;;;;;;5126862;28;20126;-53
2023/12/12 07:59:37;;;;;;;6.45;2.90;;;;;;;;;;5127028;28;20026;-51
2023/12/12 08:02:04;;;;;;;5.32;2.45;;;;;;;;;;5126397;28;20040;-54
2023/12/12 08:04:31;;;;;;;5.07;2.65;;;;;;;;;;5126522;28;20032;-51
2023/12/12 08:06:58;;;;;;;9.00;2.47;;;;;;;;;;5126984;28;20023;-52
2023/12/12 08:09:24;;;;;;;6.18;2.53;;;;;;;;;;5126479;28;20036;-52
2023/12/12 08:11:52;;;;;;;5.93;2.40;;;;;;;;;;5127172;28;20085;-51
2023/12/12 08:14:18;;;;;;;4.55;2.28;;;;;;;;;;5126657;28;20068;-52
2023/12/12 08:16:45;;;;;;;4.00;2.53;;;;;;;;;;5126757;28;20311;-49
2023/12/12 08:19:12;;;;;;;5.28;2.67;;;;;;;;;;5126148;28;20335;-57
2023/12/12 08:21:38;;;;;;;4.38;2.38;;;;;;;;;;5125195;28;20030;-52
2023/12/12 08:24:05;;;;;;;7.15;2.40;;;;;;;;;;5126009;28;20039;-49
2023/12/12 08:26:40;;;;;;;3.72;2.38;;;;;;;;;;5125926;28;20048;-48
2023/12/12 08:29:06;;;;;;;5.50;2.22;;;;;;;;;;5125916;28;20028;-60
2023/12/12 08:31:34;;;;;;;5.07;2.60;;;;;;;;;;5126193;28;20069;-55
2023/12/12 08:34:01;;;;;;;4.93;2.47;;;;;;;;;;5125766;28;20087;-51
2023/12/12 08:36:29;;;;;;;8.38;2.42;;;;;;;;;;5126286;28;20031;-49
2023/12/12 08:38:58;;;;;;;5.40;2.67;;;;;;;;;;5126045;28;20032;-50
2023/12/12 08:41:28;;;;;;;5.88;2.67;;;;;;;;;;5125981;28;20024;-58
2023/12/12 08:43:55;;;;;;;5.10;2.13;;;;;;;;;;5125932;28;20032;-52
2023/12/12 08:46:26;;;;;;;5.82;2.40;;;;;;;;;;5125289;28;20042;-50
2023/12/12 08:48:54;;;;;;;6.70;2.45;;;;;;;;;;5125531;28;20253;-49
2023/12/12 08:51:21;;;;;;;4.55;2.15;;;;;;;;;;5126320;28;20371;-54
2023/12/12 08:53:48;;;;;;;5.32;2.50;;;;;;;;;;5125419;28;20036;-54
2023/12/12 08:56:18;;;;;;;4.10;2.38;;;;;;;;;;5125983;28;20295;-57
2023/12/12 08:58:46;;;;;;;5.05;2.10;;;;;;;;;;5125582;28;20042;-53
2023/12/12 09:01:14;;;;;;;7.45;2.92;;;;;;;;;;5125206;28;20023;-50
2023/12/12 09:03:41;;;;;;;6.43;2.35;;;;;;;;;;5125371;28;20192;-49
2023/12/12 09:06:09;;;;;;;5.13;2.35;;;;;;;;;;5125497;28;20303;-51
2023/12/12 09:08:36;;;;;;;6.88;2.17;;;;;;;;;;5125210;28;20055;-51
2023/12/12 09:11:03;;;;;;;4.65;2.20;;;;;;;;;;5125617;28;20016;-53
2023/12/12 09:13:30;;;;;;;6.80;2.20;;;;;;;;;;5125232;28;20372;-52
2023/12/12 09:15:56;;;;;;;5.15;2.22;;;;;;;;;;5125255;28;20019;-49
2023/12/12 09:18:23;;;;;;;6.65;2.60;;;;;;;;;;5125518;28;20020;-51
2023/12/12 09:20:50;;;;;;;5.03;2.20;;;;;;;;;;5125361;28;20028;-53
2023/12/12 09:23:17;;;;;;;5.07;2.40;;;;;;;;;;5125308;28;20239;-55
2023/12/12 09:25:44;;;;;;;4.93;2.30;;;;;;;;;;5124930;28;20303;-47
2023/12/12 09:28:11;;;;;;;4.68;2.20;;;;;;;;;;5124958;28;20331;-53
2023/12/12 09:30:37;;;;;;;5.70;2.38;;;;;;;;;;5124576;28;20072;-52
2023/12/12 09:33:04;;;;;;;3.88;2.15;;;;;;;;;;5124776;28;20026;-58
2023/12/12 09:35:31;;;;;;;5.07;2.08;;;;;;;;;;5125262;28;20039;-53
2023/12/12 09:37:57;;;;;;;3.15;1.88;;;;;;;;;;5124706;28;20252;-52
2023/12/12 09:40:24;;;;;;;6.90;2.50;;;;;;;;;;5125030;28;20023;-52
2023/12/12 09:42:51;;;;;;;5.35;2.25;;;;;;;;;;5124902;28;20262;-54
2023/12/12 09:45:17;;;;;;;3.45;2.03;;;;;;;;;;5124545;28;20326;-53
2023/12/12 09:47:44;;;;;;;7.57;2.33;;;;;;;;;;5124664;28;20043;-57
2023/12/12 09:50:12;;;;;;;5.90;2.10;;;;;;;;;;5124537;28;20095;-58
2023/12/12 09:52:39;;;;;;;3.97;1.92;;;;;;;;;;5124860;28;20024;-53
2023/12/12 09:55:06;;;;;;;3.65;2.03;;;;;;;;;;5124932;28;20284;-54
2023/12/12 09:57:33;;;;;;;5.35;2.25;;;;;;;;;;5124770;28;20271;-56
2023/12/12 10:00:00;;;;;;;7.90;2.50;;;;;;;;;;5124375;28;20019;-50
2023/12/12 10:02:28;;;;;;;4.85;2.25;;;;;;;;;;5124600;28;20024;-55
2023/12/12 10:04:56;;;;;;;6.07;2.33;;;;;;;;;;5124414;28;20055;-54
2023/12/12 10:07:24;;;;;;;7.63;2.30;;;;;;;;;;5124437;28;20041;-49
2023/12/12 10:09:51;;;;;;;5.88;2.28;;;;;;;;;;5124132;28;20327;-51
2023/12/12 10:12:18;;;;;;;5.13;2.30;;;;;;;;;;5108383;28;20036;-53
2023/12/12 10:14:47;;;;;;;4.97;2.10;;;;;;;;;;5091355;28;20028;-49
2023/12/12 10:17:14;;;;;;;5.28;2.30;;;;;;;;;;5087935;28;20032;-49
2023/12/12 10:19:41;;;;;;;4.47;2.00;;;;;;;;;;5087864;28;20029;-48
2023/12/12 10:22:09;;;;;;;4.53;2.38;;;;;;;;;;5088014;28;20055;-48
2023/12/12 10:24:40;;;;;;;6.25;2.25;;;;;;;;;;5087778;28;20024;-50
2023/12/12 10:27:08;;;;;;;4.95;2.40;;;;;;;;;;5087505;28;20048;-53
2023/12/12 10:29:35;;;;;;;5.03;2.45;;;;;;;;;;5087336;28;20070;-49
2023/12/12 10:32:03;;;;;;;5.57;2.50;;;;;;;;;;5087909;28;20062;-50
2023/12/12 10:34:30;;;;;;;5.65;2.45;;;;;;;;;;5087410;28;20046;-52
2023/12/12 10:37:02;;;;;;;4.93;2.58;;;;;;;;;;5087821;28;20020;-52
2023/12/12 10:39:33;;;;;;;6.82;2.53;;;;;;;;;;5087315;28;20025;-53
2023/12/12 10:42:00;;;;;;;5.97;2.60;;;;;;;;;;5087714;28;20035;-51
2023/12/12 10:44:32;;;;;;;5.45;2.60;;;;;;;;;;5087236;28;20112;-57
2023/12/12 10:47:02;;;;;;;7.40;2.25;;;;;;;;;;5087540;28;20043;-52
2023/12/12 10:49:32;;;;;;;15.90;2.97;;;;;;;;;;5087021;28;20017;-51
2023/12/12 10:52:01;;;;;;;4.75;2.47;;;;;;;;;;5087598;28;20020;-50
2023/12/12 10:54:29;;;;;;;8.75;3.35;;;;;;;;;;5086998;28;20091;-53
2023/12/12 10:56:56;;;;;;;6.88;2.80;;;;;;;;;;5087425;28;20020;-52
2023/12/12 10:59:24;;;;;;;8.15;2.90;;;;;;;;;;5086970;28;20092;-52
2023/12/12 11:01:50;;;;;;;5.18;2.58;;;;;;;;;;5100196;28;20204;-54
2023/12/12 11:04:20;;;;;;;8.45;3.22;;;;;;;;;;5107259;28;20020;-49
2023/12/12 11:06:47;;;;;;;5.28;2.70;;;;;;;;;;5107502;28;20069;-52
2023/12/12 11:09:14;;;;;;;6.47;3.05;;;;;;;;;;5096946;28;20142;-54
2023/12/12 11:11:42;;;;;;;9.60;3.35;;;;;;;;;;5087853;28;20024;-48
2023/12/12 11:14:09;;;;;;;6.78;3.30;;;;;;;;;;5106929;28;20044;-56
2023/12/12 11:16:37;;;;;;;8.80;3.75;;;;;;;;;;5101888;28;20034;-56
2023/12/12 11:19:04;;;;;;;10.80;3.92;;;;;;;;;;5099084;28;20020;-55
2023/12/12 11:21:46;;;;;;;10.63;4.45;;;;;;;;;;5099785;28;20028;-47
2023/12/12 11:24:15;;;;;;;9.20;3.65;;;;;;;;;;5105813;28;20027;-53
2023/12/12 11:26:43;;;;;;;12.25;4.22;;;;;;;;;;5105042;28;20107;-45
2023/12/12 11:29:14;;;;;;;8.18;3.92;;;;;;;;;;5104898;28;20084;-49
2023/12/12 11:32:21;;;;;;;13.05;4.13;;;;;;;;;;5105325;28;20028;-48
2023/12/12 11:34:47;;;;;;;8.98;2.90;;;;;;;;;;5023638;28;20030;-58
2023/12/12 11:37:14;;;;;;;9.13;3.00;;;;;;;;;;5091352;28;20028;-51
2023/12/12 11:39:41;;;;;;;13.30;3.53;;;;;;;;;;5106624;28;20153;-49
2023/12/12 11:42:16;;;;;;;10.23;3.55;;;;;;;;;;5107355;28;20028;-44
2023/12/12 11:44:46;;;;;;;9.50;3.22;;;;;;;;;;5105321;28;20039;-44
2023/12/12 11:47:17;;;;;;;13.07;2.88;;;;;;;;;;5106479;28;20095;-48
2023/12/12 11:49:44;;;;;;;12.27;3.10;;;;;;;;;;5105986;28;20027;-43
2023/12/12 11:52:11;;;;;;;9.35;3.38;;;;;;;;;;5104590;28;20047;-46
2023/12/12 11:54:38;;;;;;;8.20;3.10;;;;;;;;;;5104455;28;20072;-45
2023/12/12 11:57:05;;;;;;;8.15;3.45;;;;;;;;;;5104881;28;20095;-49
2023/12/12 11:59:33;;;;;;;8.43;3.47;;;;;;;;;;5104325;28;20032;-46
2023/12/12 12:02:00;;;;;;;6.88;3.05;;;;;;;;;;5104127;28;20031;-43
2023/12/12 12:04:27;;;;;;;7.75;3.15;;;;;;;;;;5104344;28;20039;-47
2023/12/12 12:06:55;;;;;;;6.53;3.20;;;;;;;;;;5106718;28;20028;-46
2023/12/12 12:09:22;;;;;;;7.40;3.00;;;;;;;;;;5106004;28;20091;-42
2023/12/12 12:11:53;;;;;;;8.80;3.05;;;;;;;;;;5106863;28;20020;-51
2023/12/12 12:14:23;;;;;;;4.28;2.80;;;;;;;;;;5106152;28;20024;-52
2023/12/12 12:16:55;;;;;;;7.57;3.40;;;;;;;;;;5106310;28;20058;-48
2023/12/12 12:19:30;;;;;;;8.25;3.55;;;;;;;;;;5106506;28;20088;-43
2023/12/12 12:22:08;;;;;;;4.80;3.00;;;;;;;;;;5106456;28;20032;-43
2023/12/12 12:24:41;;;;;;;6.07;3.28;;;;;;;;;;5105770;28;20031;-49
2023/12/12 12:27:09;;;;;;;6.88;3.22;;;;;;;;;;5105485;28;20048;-50
2023/12/12 12:29:36;;;;;;;8.90;3.10;;;;;;;;;;5105493;28;20043;-48
2023/12/12 12:32:13;;;;;;;7.05;3.85;;;;;;;;;;5105964;28;20019;-44
2023/12/12 12:34:40;;;;;;;5.22;3.33;;;;;;;;;;5104977;28;20039;-45
2023/12/12 12:37:07;;;;;;;13.30;3.85;;;;;;;;;;5106046;28;20031;-49
2023/12/12 12:39:44;;;;;;;12.60;3.95;;;;;;;;;;5105555;28;20254;-45
2023/12/12 12:42:11;;;;;;;15.20;4.32;;;;;;;;;;5105475;28;20028;-50
2023/12/12 12:44:37;;;;;;;11.68;4.30;;;;;;;;;;5105703;28;20020;-54
2023/12/12 12:47:05;;;;;;;10.30;3.90;;;;;;;;;;5105396;28;20020;-61
2023/12/12 12:49:32;;;;;;;11.20;4.00;;;;;;;;;;5105201;28;20028;-48
2023/12/12 12:51:59;;;;;;;10.30;3.88;;;;;;;;;;5106185;28;20201;-47
2023/12/12 12:54:25;;;;;;;12.15;4.05;;;;;;;;;;5105335;28;20016;-51
2023/12/12 12:56:52;;;;;;;8.25;3.55;;;;;;;;;;5105916;28;20284;-47
2023/12/12 12:59:21;;;;;;;8.85;3.63;;;;;;;;;;5105523;28;20028;-44
2023/12/12 13:01:48;;;;;;;11.75;3.78;;;;;;;;;;5105428;28;20039;-48
2023/12/12 13:04:14;;;;;;;8.18;3.55;;;;;;;;;;5105186;28;20059;-50
2023/12/12 13:06:41;;;;;;;6.65;3.60;;;;;;;;;;5105378;28;20031;-48
2023/12/12 13:09:09;;;;;;;6.80;3.60;;;;;;;;;;5105102;28;20027;-51
2023/12/12 13:11:38;;;;;;;11.13;3.58;;;;;;;;;;5104959;28;20028;-48
2023/12/12 13:14:06;;;;;;;7.53;3.28;;;;;;;;;;5104795;28;20036;-49
2023/12/12 13:16:33;;;;;;;5.03;3.17;;;;;;;;;;5105265;28;20079;-50
2023/12/12 13:18:59;;;;;;;7.30;3.50;;;;;;;;;;5104707;28;20142;-48
2023/12/12 13:21:26;;;;;;;4.78;3.05;;;;;;;;;;5104931;28;20091;-51
2023/12/12 13:23:53;;;;;;;5.53;3.40;;;;;;;;;;5104659;28;20024;-49
2023/12/12 13:26:22;;;;;;;4.53;2.90;;;;;;;;;;5104395;28;20061;-50
2023/12/12 13:28:51;;;;;;;6.35;2.92;;;;;;;;;;5104739;28;20024;-49
2023/12/12 13:31:20;;;;;;;6.18;2.70;;;;;;;;;;5105200;28;20019;-50
2023/12/12 13:33:50;;;;;;;4.78;3.17;;;;;;;;;;5104499;28;20172;-46
2023/12/12 13:36:17;;;;;;;5.32;3.20;;;;;;;;;;5104660;28;20043;-48
2023/12/12 13:38:44;;;;;;;8.05;3.63;;;;;;;;;;5104986;28;20030;-47
2023/12/12 13:41:14;;;;;;;8.50;3.63;;;;;;;;;;5104845;28;20023;-47
2023/12/12 13:43:42;;;;;;;5.30;3.20;;;;;;;;;;5104793;28;20028;-47
2023/12/12 13:46:08;;;;;;;4.70;3.10;;;;;;;;;;5104281;28;20024;-45
2023/12/12 13:48:36;;;;;;;11.35;3.80;;;;;;;;;;5103846;28;20241;-56
2023/12/12 13:51:03;;;;;;;5.32;3.88;;;;;;;;;;5104901;28;20065;-49
2023/12/12 13:53:30;;;;;;;5.30;3.92;;;;;;;;;;5104608;28;20027;-51
2023/12/12 13:55:56;;;;;;;6.78;3.63;;;;;;;;;;5104301;28;20103;-50
2023/12/12 13:58:23;;;;;;;5.43;3.60;;;;;;;;;;5104340;28;20054;-45
2023/12/12 14:00:50;;;;;;;5.50;3.60;;;;;;;;;;5104546;28;20023;-54
2023/12/12 14:03:17;;;;;;;6.18;3.58;;;;;;;;;;5104382;28;20198;-58
2023/12/12 14:05:44;;;;;;;7.88;3.97;;;;;;;;;;5104423;28;20050;-45
2023/12/12 14:08:11;;;;;;;7.15;4.38;;;;;;;;;;5104300;28;20020;-48
2023/12/12 14:10:39;;;;;;;9.43;4.10;;;;;;;;;;5104688;28;20027;-54
2023/12/12 14:13:06;;;;;;;6.63;3.78;;;;;;;;;;5104136;28;20204;-45
2023/12/12 14:15:34;;;;;;;6.38;4.13;;;;;;;;;;5104431;28;20028;-47
2023/12/12 14:18:02;;;;;;;6.43;3.80;;;;;;;;;;5103966;28;20031;-47
2023/12/12 14:20:29;;;;;;;6.10;3.72;;;;;;;;;;5104608;28;20200;-49
2023/12/12 14:22:56;;;;;;;7.43;4.18;;;;;;;;;;5104220;28;20024;-48
2023/12/12 14:25:24;;;;;;;4.60;3.60;;;;;;;;;;5104398;28;20031;-48
2023/12/12 14:27:51;;;;;;;6.60;4.43;;;;;;;;;;5103937;28;20044;-45
2023/12/12 14:30:27;;;;;;;7.88;4.03;;;;;;;;;;5103777;28;20043;-45
2023/12/12 14:32:57;;;;;;;7.75;3.90;;;;;;;;;;5103976;28;20048;-44
2023/12/12 14:35:28;;;;;;;8.43;4.30;;;;;;;;;;5103987;28;20353;-46
2023/12/12 14:37:55;;;;;;;7.38;4.00;;;;;;;;;;5103982;28;20032;-44
2023/12/12 14:40:22;;;;;;;7.10;4.13;;;;;;;;;;5104345;28;20027;-45